createdAt,value
2018-05-14T00:00:06.494Z,0.00
2018-05-14T00:01:06.487Z,0.00
2018-05-14T00:02:06.479Z,0.00
2018-05-14T00:03:06.478Z,0.00
2018-05-14T00:04:06.490Z,0.00
2018-05-14T00:05:06.463Z,0.00
2018-05-14T00:06:06.465Z,0.00
2018-05-14T00:07:06.459Z,0.00
2018-05-14T00:08:06.447Z,0.00
2018-05-14T00:09:06.463Z,0.00
2018-05-14T00:10:06.438Z,0.00
2018-05-14T00:11:06.437Z,0.00
2018-05-14T00:12:06.429Z,0.00
2018-05-14T00:13:06.421Z,0.00
2018-05-14T00:14:06.418Z,0.00
2018-05-14T00:15:06.414Z,0.00
2018-05-14T00:16:06.409Z,0.00
2018-05-14T00:17:06.401Z,0.00
2018-05-14T00:18:08.147Z,0.00
2018-05-14T00:19:06.392Z,0.00
2018-05-14T00:20:06.391Z,0.00
2018-05-14T00:21:06.387Z,0.00
2018-05-14T00:22:06.373Z,0.00
2018-05-14T00:23:06.371Z,0.00
2018-05-14T00:24:06.365Z,0.00
2018-05-14T00:25:06.357Z,0.00
2018-05-14T00:26:08.146Z,0.00
2018-05-14T00:27:06.349Z,0.00
2018-05-14T00:28:08.154Z,0.00
2018-05-14T00:29:06.340Z,0.00
2018-05-14T00:30:06.337Z,0.00
2018-05-14T00:31:06.334Z,0.00
2018-05-14T00:32:06.325Z,0.00
2018-05-14T00:33:06.321Z,0.00
2018-05-14T00:34:06.315Z,0.00
2018-05-14T00:35:06.309Z,0.00
2018-05-14T00:36:06.304Z,0.00
2018-05-14T00:37:06.299Z,0.00
2018-05-14T00:38:06.297Z,0.00
2018-05-14T00:39:06.286Z,0.00
2018-05-14T00:40:06.289Z,0.00
2018-05-14T00:41:06.291Z,0.00
2018-05-14T00:42:06.274Z,0.00
2018-05-14T00:43:06.269Z,0.00
2018-05-14T00:44:06.264Z,0.00
2018-05-14T00:45:06.265Z,0.00
2018-05-14T00:46:06.258Z,0.00
2018-05-14T00:47:06.246Z,0.00
2018-05-14T00:48:06.248Z,0.00
2018-05-14T00:49:06.247Z,0.00
2018-05-14T00:50:06.234Z,0.00
2018-05-14T00:51:06.231Z,0.00
2018-05-14T00:52:06.220Z,0.00
2018-05-14T00:53:06.217Z,0.00
2018-05-14T00:54:06.216Z,0.00
2018-05-14T00:55:06.222Z,0.00
2018-05-14T00:56:06.204Z,0.00
2018-05-14T00:57:06.198Z,0.00
2018-05-14T00:58:08.166Z,0.00
2018-05-14T00:59:09.170Z,0.00
2018-05-14T01:00:08.172Z,0.00
2018-05-14T01:01:08.167Z,0.00
2018-05-14T01:02:06.173Z,0.00
2018-05-14T01:03:06.169Z,0.00
2018-05-14T01:04:06.162Z,0.00
2018-05-14T01:05:06.155Z,0.00
2018-05-14T01:06:06.150Z,0.00
2018-05-14T01:07:06.148Z,0.00
2018-05-14T01:08:06.138Z,0.00
2018-05-14T01:09:06.134Z,0.00
2018-05-14T01:10:06.126Z,0.00
2018-05-14T01:11:06.120Z,0.00
2018-05-14T01:12:06.133Z,0.00
2018-05-14T01:13:06.108Z,0.00
2018-05-14T01:14:06.105Z,0.00
2018-05-14T01:15:06.113Z,0.00
2018-05-14T01:16:06.091Z,0.00
2018-05-14T01:17:06.090Z,0.00
2018-05-14T01:18:06.086Z,0.00
2018-05-14T01:19:06.078Z,0.00
2018-05-14T01:20:06.075Z,0.00
2018-05-14T01:21:06.090Z,0.00
2018-05-14T01:22:06.063Z,0.00
2018-05-14T01:23:06.065Z,0.00
2018-05-14T01:24:06.051Z,0.00
2018-05-14T01:25:06.053Z,0.00
2018-05-14T01:26:06.045Z,0.00
2018-05-14T01:27:06.034Z,0.00
2018-05-14T01:28:07.695Z,0.00
2018-05-14T01:29:06.031Z,0.00
2018-05-14T01:30:06.020Z,0.00
2018-05-14T01:31:06.018Z,0.00
2018-05-14T01:32:06.012Z,0.00
2018-05-14T01:33:06.005Z,0.00
2018-05-14T01:34:06.001Z,0.00
2018-05-14T01:35:05.994Z,0.00
2018-05-14T01:36:05.985Z,0.00
2018-05-14T01:37:05.985Z,0.00
2018-05-14T01:38:05.986Z,0.00
2018-05-14T01:39:05.974Z,0.00
2018-05-14T01:40:05.969Z,0.00
2018-05-14T01:41:05.970Z,0.00
2018-05-14T01:42:05.965Z,0.00
2018-05-14T01:43:05.951Z,0.00
2018-05-14T01:44:05.948Z,0.00
2018-05-14T01:45:05.952Z,0.00
2018-05-14T01:46:05.942Z,0.00
2018-05-14T01:47:05.932Z,0.00
2018-05-14T01:48:05.933Z,0.00
2018-05-14T01:49:05.923Z,0.00
2018-05-14T01:50:05.915Z,0.00
2018-05-14T01:51:05.911Z,0.00
2018-05-14T01:52:05.903Z,0.00
2018-05-14T01:53:05.907Z,0.00
2018-05-14T01:54:05.895Z,0.00
2018-05-14T01:55:05.887Z,0.00
2018-05-14T01:56:05.879Z,0.00
2018-05-14T01:57:05.881Z,0.00
2018-05-14T01:58:05.875Z,0.00
2018-05-14T01:59:05.872Z,0.00
2018-05-14T02:00:05.861Z,0.00
2018-05-14T02:01:05.859Z,0.00
2018-05-14T02:02:05.852Z,0.00
2018-05-14T02:03:05.855Z,0.00
2018-05-14T02:04:05.864Z,0.00
2018-05-14T02:05:05.841Z,0.00
2018-05-14T02:06:05.832Z,0.00
2018-05-14T02:07:05.824Z,0.00
2018-05-14T02:08:05.822Z,0.00
2018-05-14T02:09:05.814Z,0.00
2018-05-14T02:10:05.810Z,0.00
2018-05-14T02:11:05.801Z,0.00
2018-05-14T02:12:05.799Z,0.00
2018-05-14T02:13:05.792Z,0.00
2018-05-14T02:14:07.683Z,0.00
2018-05-14T02:15:05.787Z,0.00
2018-05-14T02:16:05.775Z,0.00
2018-05-14T02:17:05.773Z,0.00
2018-05-14T02:18:05.769Z,0.00
2018-05-14T02:19:05.770Z,0.00
2018-05-14T02:20:05.762Z,0.00
2018-05-14T02:21:05.753Z,0.00
2018-05-14T02:22:05.746Z,0.00
2018-05-14T02:23:05.738Z,0.00
2018-05-14T02:24:07.694Z,0.00
2018-05-14T02:25:05.733Z,0.00
2018-05-14T02:26:05.727Z,0.00
2018-05-14T02:27:05.718Z,0.00
2018-05-14T02:28:07.690Z,0.00
2018-05-14T02:29:05.721Z,0.00
2018-05-14T02:30:05.704Z,0.00
2018-05-14T02:31:05.704Z,0.00
2018-05-14T02:32:07.193Z,0.00
2018-05-14T02:33:05.694Z,0.00
2018-05-14T02:34:05.684Z,0.00
2018-05-14T02:35:05.679Z,0.00
2018-05-14T02:36:05.670Z,0.00
2018-05-14T02:37:05.668Z,0.00
2018-05-14T02:38:05.669Z,0.00
2018-05-14T02:39:05.658Z,0.00
2018-05-14T02:40:05.657Z,0.00
2018-05-14T02:41:05.645Z,0.00
2018-05-14T02:42:05.657Z,0.00
2018-05-14T02:43:05.632Z,0.00
2018-05-14T02:44:05.628Z,0.00
2018-05-14T02:45:05.623Z,0.00
2018-05-14T02:46:05.617Z,0.00
2018-05-14T02:47:05.613Z,0.00
2018-05-14T02:48:05.606Z,0.00
2018-05-14T02:49:05.608Z,0.00
2018-05-14T02:50:05.599Z,0.00
2018-05-14T02:51:05.590Z,0.00
2018-05-14T02:52:05.585Z,0.00
2018-05-14T02:53:05.589Z,0.00
2018-05-14T02:54:05.590Z,0.00
2018-05-14T02:55:05.564Z,0.00
2018-05-14T02:56:05.565Z,0.00
2018-05-14T02:57:05.557Z,0.00
2018-05-14T02:58:05.553Z,0.00
2018-05-14T02:59:05.555Z,0.00
2018-05-14T03:00:05.542Z,0.00
2018-05-14T03:01:05.537Z,4.00
2018-05-14T03:02:05.539Z,0.00
2018-05-14T03:03:05.541Z,0.00
2018-05-14T03:04:05.526Z,4.00
2018-05-14T03:05:05.530Z,4.00
2018-05-14T03:06:05.523Z,4.00
2018-05-14T03:07:07.206Z,4.00
2018-05-14T03:08:05.505Z,4.00
2018-05-14T03:09:05.496Z,4.00
2018-05-14T03:10:05.498Z,8.00
2018-05-14T03:11:05.485Z,8.00
2018-05-14T03:12:05.491Z,8.00
2018-05-14T03:13:05.486Z,8.00
2018-05-14T03:14:05.470Z,12.00
2018-05-14T03:15:05.468Z,12.00
2018-05-14T03:16:05.455Z,16.00
2018-05-14T03:17:05.455Z,16.00
2018-05-14T03:18:05.454Z,20.00
2018-05-14T03:19:05.441Z,24.00
2018-05-14T03:20:05.437Z,28.00
2018-05-14T03:21:05.431Z,28.00
2018-05-14T03:22:05.426Z,32.00
2018-05-14T03:23:05.443Z,40.00
2018-05-14T03:24:05.412Z,40.00
2018-05-14T03:25:05.410Z,48.00
2018-05-14T03:26:05.415Z,56.00
2018-05-14T03:27:05.396Z,56.00
2018-05-14T03:28:05.394Z,64.00
2018-05-14T03:29:07.216Z,76.00
2018-05-14T03:30:05.381Z,84.00
2018-05-14T03:31:05.379Z,96.00
2018-05-14T03:32:05.372Z,104.00
2018-05-14T03:33:05.365Z,116.00
2018-05-14T03:34:05.364Z,124.00
2018-05-14T03:35:07.218Z,128.00
2018-05-14T03:36:05.350Z,148.00
2018-05-14T03:37:05.347Z,160.00
2018-05-14T03:38:05.350Z,172.00
2018-05-14T03:39:05.336Z,184.00
2018-05-14T03:40:05.334Z,192.00
2018-05-14T03:41:05.329Z,204.00
2018-05-14T03:42:05.318Z,192.00
2018-05-14T03:43:05.309Z,204.00
2018-05-14T03:44:05.306Z,216.00
2018-05-14T03:45:05.296Z,264.00
2018-05-14T03:46:05.293Z,288.00
2018-05-14T03:47:05.287Z,264.00
2018-05-14T03:48:05.290Z,272.00
2018-05-14T03:49:05.281Z,268.00
2018-05-14T03:50:05.274Z,276.00
2018-05-14T03:51:05.277Z,276.00
2018-05-14T03:52:05.262Z,308.00
2018-05-14T03:53:05.255Z,340.00
2018-05-14T03:54:05.254Z,416.00
2018-05-14T03:55:05.250Z,428.00
2018-05-14T03:56:05.243Z,440.00
2018-05-14T03:57:05.238Z,488.00
2018-05-14T03:58:05.229Z,524.00
2018-05-14T03:59:05.226Z,536.00
2018-05-14T04:00:05.218Z,496.00
2018-05-14T04:01:05.219Z,496.00
2018-05-14T04:02:05.215Z,492.00
2018-05-14T04:03:05.199Z,508.00
2018-05-14T04:04:05.199Z,588.00
2018-05-14T04:05:05.192Z,656.00
2018-05-14T04:06:05.188Z,732.00
2018-05-14T04:07:05.176Z,716.00
2018-05-14T04:08:05.173Z,736.00
2018-05-14T04:09:05.165Z,800.00
2018-05-14T04:10:05.163Z,844.00
2018-05-14T04:11:05.162Z,800.00
2018-05-14T04:12:05.153Z,772.00
2018-05-14T04:13:05.149Z,744.00
2018-05-14T04:14:05.145Z,824.00
2018-05-14T04:15:05.136Z,860.00
2018-05-14T04:16:05.130Z,960.00
2018-05-14T04:17:05.132Z,988.00
2018-05-14T04:18:05.117Z,928.00
2018-05-14T04:19:05.126Z,920.00
2018-05-14T04:20:05.113Z,1016.00
2018-05-14T04:21:05.103Z,1112.00
2018-05-14T04:22:05.101Z,1088.00
2018-05-14T04:23:05.094Z,1088.00
2018-05-14T04:24:05.092Z,1072.00
2018-05-14T04:25:05.081Z,1132.00
2018-05-14T04:26:05.082Z,1260.00
2018-05-14T04:27:05.072Z,1420.00
2018-05-14T04:28:05.087Z,1660.00
2018-05-14T04:29:05.060Z,1608.00
2018-05-14T04:30:05.057Z,1648.00
2018-05-14T04:31:05.050Z,1536.00
2018-05-14T04:32:05.044Z,1712.00
2018-05-14T04:33:05.041Z,1692.00
2018-05-14T04:34:05.039Z,1824.00
2018-05-14T04:35:05.036Z,2040.00
2018-05-14T04:36:05.034Z,2064.00
2018-05-14T04:37:05.023Z,1796.00
2018-05-14T04:38:05.019Z,1776.00
2018-05-14T04:39:05.007Z,1928.00
2018-05-14T04:40:05.005Z,2240.00
2018-05-14T04:41:05.000Z,2060.00
2018-05-14T04:42:04.991Z,2300.00
2018-05-14T04:43:04.985Z,2412.00
2018-05-14T04:44:04.992Z,2036.00
2018-05-14T04:45:05.008Z,1776.00
2018-05-14T04:46:04.972Z,1588.00
2018-05-14T04:47:04.964Z,1552.00
2018-05-14T04:48:04.979Z,1688.00
2018-05-14T04:49:04.955Z,1868.00
2018-05-14T04:50:04.947Z,2060.00
2018-05-14T04:51:04.943Z,2088.00
2018-05-14T04:52:04.941Z,2232.00
2018-05-14T04:53:04.933Z,2248.00
2018-05-14T04:54:04.950Z,2104.00
2018-05-14T04:55:04.923Z,2168.00
2018-05-14T04:56:04.916Z,2548.00
2018-05-14T04:57:04.917Z,2600.00
2018-05-14T04:58:04.908Z,2512.00
2018-05-14T04:59:04.903Z,2572.00
2018-05-14T05:00:04.897Z,2928.00
2018-05-14T05:01:04.890Z,3016.00
2018-05-14T05:02:04.883Z,3208.00
2018-05-14T05:03:06.747Z,3488.00
2018-05-14T05:04:04.875Z,3232.00
2018-05-14T05:05:04.871Z,2752.00
2018-05-14T05:06:04.863Z,2924.00
2018-05-14T05:07:04.858Z,3412.00
2018-05-14T05:08:04.852Z,2884.00
2018-05-14T05:09:04.850Z,3060.00
2018-05-14T05:10:04.843Z,2924.00
2018-05-14T05:11:04.837Z,2904.00
2018-05-14T05:12:04.836Z,3024.00
2018-05-14T05:13:04.828Z,3136.00
2018-05-14T05:14:04.825Z,2960.00
2018-05-14T05:16:40.486Z,3176.00
2018-05-14T05:17:38.224Z,3168.00
2018-05-14T05:19:33.220Z,4020.00
2018-05-14T05:20:31.085Z,4152.00
2018-05-14T05:22:24.946Z,4696.00
2018-05-14T05:23:25.399Z,5308.00
2018-05-14T05:25:52.373Z,4952.00
2018-05-14T05:26:19.578Z,5288.00
2018-05-14T05:30:10.925Z,4844.00
2018-05-14T05:30:45.019Z,4940.00
2018-05-14T05:34:37.341Z,4952.00
2018-05-14T05:35:11.171Z,4816.00
2018-05-14T05:37:04.064Z,5032.00
2018-05-14T05:38:03.606Z,6104.00
2018-05-14T05:40:28.084Z,6344.00
2018-05-14T05:40:58.732Z,7452.00
2018-05-14T05:43:01.419Z,8820.00
2018-05-14T05:43:51.784Z,7736.00
2018-05-14T05:47:50.592Z,10016.00
2018-05-14T05:48:18.602Z,9124.00
2018-05-14T05:50:12.076Z,12624.00
2018-05-14T05:52:36.051Z,11648.00
2018-05-14T05:53:26.533Z,13220.00
2018-05-14T05:55:21.941Z,8964.00
2018-05-14T05:56:21.175Z,14976.00
2018-05-14T05:58:42.265Z,14824.00
2018-05-14T05:59:15.285Z,19072.00
2018-05-14T06:01:17.694Z,12044.00
2018-05-14T06:02:08.022Z,18144.00
2018-05-14T06:03:07.983Z,17792.00
2018-05-14T06:04:07.998Z,15904.00
2018-05-14T06:05:09.433Z,18624.00
2018-05-14T06:06:09.663Z,10520.00
2018-05-14T06:07:08.864Z,8152.00
2018-05-14T06:08:08.344Z,9548.00
2018-05-14T06:09:08.333Z,10492.00
2018-05-14T06:10:08.366Z,9172.00
2018-05-14T06:11:08.341Z,14584.00
2018-05-14T06:12:09.594Z,8552.00
2018-05-14T06:13:09.159Z,8760.00
2018-05-14T06:14:08.824Z,7900.00
2018-05-14T06:15:08.332Z,9184.00
2018-05-14T06:16:08.869Z,9852.00
2018-05-14T06:17:08.814Z,9936.00
2018-05-14T06:18:09.147Z,11188.00
2018-05-14T06:19:09.098Z,13344.00
2018-05-14T06:20:08.835Z,13140.00
2018-05-14T06:21:08.308Z,17728.00
2018-05-14T06:22:08.330Z,15572.00
2018-05-14T06:23:08.306Z,16000.00
2018-05-14T06:24:09.676Z,16320.00
2018-05-14T06:25:08.246Z,8636.00
2018-05-14T06:26:07.811Z,8104.00
2018-05-14T06:27:07.819Z,8876.00
2018-05-14T06:28:07.795Z,9648.00
2018-05-14T06:29:07.799Z,21344.00
2018-05-14T06:30:07.791Z,22112.00
2018-05-14T06:31:07.790Z,19104.00
2018-05-14T06:32:07.784Z,20800.00
2018-05-14T06:33:07.781Z,19232.00
2018-05-14T06:34:07.789Z,22752.00
2018-05-14T06:35:07.782Z,22816.00
2018-05-14T06:36:07.774Z,23200.00
2018-05-14T06:37:07.798Z,23648.00
2018-05-14T06:38:07.769Z,21376.00
2018-05-14T06:39:07.768Z,23360.00
2018-05-14T06:40:07.763Z,23744.00
2018-05-14T06:41:31.284Z,23488.00
2018-05-14T06:43:41.724Z,10624.00
2018-05-14T06:44:41.843Z,10396.00
2018-05-14T06:46:34.842Z,9344.00
2018-05-14T06:47:33.814Z,9516.00
2018-05-14T06:49:28.719Z,13360.00
2018-05-14T06:50:27.676Z,22464.00
2018-05-14T06:52:22.554Z,16672.00
2018-05-14T06:53:21.332Z,16576.00
2018-05-14T06:54:21.310Z,24480.00
2018-05-14T06:55:21.344Z,22400.00
2018-05-14T06:56:21.423Z,27264.00
2018-05-14T06:57:22.314Z,26688.00
2018-05-14T06:58:21.281Z,29312.00
2018-05-14T06:59:21.275Z,28224.00
2018-05-14T07:00:21.283Z,28640.00
2018-05-14T07:01:21.278Z,27424.00
2018-05-14T07:02:21.279Z,28448.00
2018-05-14T07:03:21.274Z,28960.00
2018-05-14T07:04:21.280Z,31008.00
2018-05-14T07:10:21.676Z,31520.00
2018-05-14T07:11:00.335Z,30656.00
2018-05-14T07:13:19.424Z,32352.00
2018-05-14T07:13:58.126Z,32128.00
2018-05-14T07:14:56.085Z,32000.00
2018-05-14T07:15:56.137Z,33312.00
2018-05-14T07:16:56.095Z,33056.00
2018-05-14T07:17:58.100Z,33952.00
2018-05-14T07:18:58.010Z,34880.00
2018-05-14T07:19:57.454Z,35328.00
2018-05-14T07:20:56.021Z,36064.00
2018-05-14T07:21:56.050Z,35904.00
2018-05-14T07:22:56.036Z,36576.00
2018-05-14T07:23:56.028Z,35456.00
2018-05-14T07:24:56.024Z,35488.00
2018-05-14T07:25:56.027Z,36704.00
2018-05-14T07:26:56.058Z,33632.00
2018-05-14T07:27:56.035Z,34080.00
2018-05-14T07:28:56.041Z,34240.00
2018-05-14T07:29:56.047Z,36032.00
2018-05-14T07:30:56.045Z,36608.00
2018-05-14T07:31:56.048Z,37088.00
2018-05-14T07:32:56.052Z,30048.00
2018-05-14T07:33:56.060Z,21280.00
2018-05-14T07:34:56.056Z,19712.00
2018-05-14T07:35:56.067Z,19456.00
2018-05-14T07:36:56.067Z,19200.00
2018-05-14T07:37:56.073Z,19456.00
2018-05-14T07:38:56.075Z,19488.00
2018-05-14T07:39:56.080Z,19808.00
2018-05-14T07:40:57.737Z,20256.00
2018-05-14T07:41:57.736Z,23296.00
2018-05-14T07:42:56.094Z,35488.00
2018-05-14T07:43:56.096Z,42272.00
2018-05-14T07:44:56.097Z,43488.00
2018-05-14T07:45:57.789Z,43872.00
2018-05-14T07:46:57.743Z,42784.00
2018-05-14T07:47:56.113Z,45248.00
2018-05-14T07:48:56.115Z,49216.00
2018-05-14T07:49:56.121Z,50080.00
2018-05-14T07:50:56.126Z,49920.00
2018-05-14T07:51:56.132Z,51168.00
2018-05-14T07:52:56.142Z,51072.00
2018-05-14T07:53:56.140Z,51200.00
2018-05-14T07:54:56.144Z,54208.00
2018-05-14T07:55:56.148Z,54976.00
2018-05-14T07:56:56.154Z,54112.00
2018-05-14T07:57:56.158Z,53472.00
2018-05-14T07:58:56.178Z,53728.00
2018-05-14T07:59:56.175Z,52832.00
2018-05-14T08:00:56.182Z,51456.00
2018-05-14T08:01:56.183Z,52992.00
2018-05-14T08:02:56.183Z,54112.00
2018-05-14T08:03:56.199Z,53248.00
2018-05-14T08:04:56.200Z,53024.00
2018-05-14T08:05:56.204Z,50816.00
2018-05-14T08:06:56.202Z,51392.00
2018-05-14T08:07:56.215Z,54336.00
2018-05-14T08:08:56.216Z,55520.00
2018-05-14T08:09:56.225Z,54464.00
2018-05-14T08:10:56.231Z,52480.00
2018-05-14T08:11:56.239Z,52416.00
2018-05-14T08:12:56.242Z,49632.00
2018-05-14T08:13:56.248Z,49664.00
2018-05-14T08:14:56.255Z,52832.00
2018-05-14T08:15:56.263Z,55392.00
2018-05-14T08:16:56.272Z,56224.00
2018-05-14T08:17:56.275Z,56800.00
2018-05-14T08:18:56.281Z,57888.00
2018-05-14T08:19:56.287Z,57120.00
2018-05-14T08:20:56.293Z,59168.00
2018-05-14T08:21:56.301Z,57632.00
2018-05-14T08:22:56.306Z,56288.00
2018-05-14T08:23:56.309Z,57920.00
2018-05-14T08:24:56.317Z,61152.00
2018-05-14T08:25:56.418Z,59936.00
2018-05-14T08:26:56.329Z,58112.00
2018-05-14T08:27:56.338Z,63488.00
2018-05-14T08:28:56.346Z,62432.00
2018-05-14T08:29:56.353Z,63136.00
2018-05-14T08:30:56.358Z,63680.00
2018-05-14T08:31:56.368Z,63936.00
2018-05-14T08:32:56.375Z,64800.00
2018-05-14T08:33:56.385Z,64736.00
2018-05-14T08:34:56.389Z,61824.00
2018-05-14T08:35:56.395Z,58016.00
2018-05-14T08:36:56.403Z,56320.00
2018-05-14T08:37:56.412Z,61728.00
2018-05-14T08:38:56.423Z,64704.00
2018-05-14T08:39:56.429Z,64960.00
2018-05-14T08:40:56.436Z,64512.00
2018-05-14T08:41:56.446Z,28192.00
2018-05-14T08:42:56.449Z,23872.00
2018-05-14T08:43:56.467Z,33984.00
2018-05-14T08:44:58.284Z,23456.00
2018-05-14T08:45:56.474Z,27040.00
2018-05-14T08:46:56.481Z,38880.00
2018-05-14T08:47:56.585Z,63104.00
2018-05-14T08:48:56.595Z,64928.00
2018-05-14T08:49:56.504Z,66112.00
2018-05-14T08:50:56.509Z,63840.00
2018-05-14T08:51:56.517Z,59904.00
2018-05-14T08:52:56.528Z,56832.00
2018-05-14T08:53:56.534Z,59552.00
2018-05-14T08:54:56.542Z,66656.00
2018-05-14T08:55:56.549Z,67872.00
2018-05-14T08:56:56.560Z,66912.00
2018-05-14T08:57:56.569Z,65184.00
2018-05-14T08:58:56.578Z,62176.00
2018-05-14T08:59:56.588Z,61152.00
2018-05-14T09:00:58.297Z,59552.00
2018-05-14T09:01:56.597Z,62176.00
2018-05-14T09:02:56.608Z,69152.00
2018-05-14T09:03:56.615Z,71232.00
2018-05-14T09:04:56.625Z,72576.00
2018-05-14T09:05:56.636Z,73248.00
2018-05-14T09:06:56.638Z,73280.00
2018-05-14T09:07:56.646Z,74144.00
2018-05-14T09:08:58.298Z,75808.00
2018-05-14T09:09:56.664Z,77792.00
2018-05-14T09:10:56.670Z,76928.00
2018-05-14T09:11:56.678Z,75488.00
2018-05-14T09:12:56.694Z,73888.00
2018-05-14T09:13:56.699Z,70880.00
2018-05-14T09:14:56.707Z,70560.00
2018-05-14T09:15:56.715Z,68416.00
2018-05-14T09:16:56.726Z,69728.00
2018-05-14T09:17:56.730Z,73536.00
2018-05-14T09:18:56.738Z,75712.00
2018-05-14T09:19:56.757Z,75264.00
2018-05-14T09:20:56.759Z,71872.00
2018-05-14T09:21:58.312Z,71936.00
2018-05-14T09:22:56.773Z,71200.00
2018-05-14T09:23:56.788Z,72736.00
2018-05-14T09:24:56.796Z,73568.00
2018-05-14T09:25:56.801Z,73632.00
2018-05-14T09:26:56.802Z,75136.00
2018-05-14T09:27:56.819Z,75520.00
2018-05-14T09:28:56.818Z,76480.00
2018-05-14T09:29:56.830Z,75968.00
2018-05-14T09:30:56.839Z,78656.00
2018-05-14T09:31:56.847Z,80704.00
2018-05-14T09:32:56.859Z,80480.00
2018-05-14T09:33:58.822Z,80480.00
2018-05-14T09:34:58.821Z,83456.00
2018-05-14T09:35:56.880Z,84704.00
2018-05-14T09:36:56.895Z,85376.00
2018-05-14T09:37:56.902Z,86048.00
2018-05-14T09:38:56.914Z,86080.00
2018-05-14T09:39:56.914Z,84128.00
2018-05-14T09:40:56.929Z,83712.00
2018-05-14T09:41:56.937Z,85280.00
2018-05-14T09:42:56.947Z,86528.00
2018-05-14T09:43:56.950Z,86432.00
2018-05-14T09:44:56.966Z,85952.00
2018-05-14T09:45:58.831Z,87520.00
2018-05-14T09:46:58.829Z,86784.00
2018-05-14T09:47:56.996Z,86176.00
2018-05-14T09:48:57.005Z,86976.00
2018-05-14T09:49:57.011Z,87776.00
2018-05-14T09:50:57.018Z,85632.00
2018-05-14T09:51:57.040Z,86592.00
2018-05-14T09:52:57.111Z,88192.00
2018-05-14T09:53:57.045Z,89632.00
2018-05-14T09:54:57.054Z,89792.00
2018-05-14T09:55:57.067Z,86400.00
2018-05-14T09:56:57.074Z,84704.00
2018-05-14T09:57:57.087Z,86016.00
2018-05-14T09:58:57.093Z,86144.00
2018-05-14T09:59:57.102Z,85408.00
2018-05-14T10:00:57.116Z,86080.00
2018-05-14T10:01:57.129Z,87744.00
2018-05-14T10:02:57.141Z,86464.00
2018-05-14T10:03:57.139Z,83648.00
2018-05-14T10:04:57.155Z,80768.00
2018-05-14T10:05:57.627Z,79392.00
2018-05-14T10:06:57.527Z,76736.00
2018-05-14T10:07:58.736Z,77152.00
2018-05-14T10:08:57.262Z,80928.00
2018-05-14T10:09:57.207Z,84608.00
2018-05-14T10:10:57.223Z,86560.00
2018-05-14T10:11:57.256Z,84992.00
2018-05-14T10:12:57.297Z,85216.00
2018-05-14T10:13:57.260Z,87712.00
2018-05-14T10:14:57.258Z,87200.00
2018-05-14T10:15:57.275Z,83168.00
2018-05-14T10:16:57.293Z,83648.00
2018-05-14T10:17:57.304Z,85952.00
2018-05-14T10:18:57.356Z,86880.00
2018-05-14T10:19:57.329Z,88416.00
2018-05-14T10:20:57.348Z,90784.00
2018-05-14T10:21:57.381Z,89376.00
2018-05-14T10:22:57.335Z,88320.00
2018-05-14T10:23:57.357Z,89056.00
2018-05-14T10:24:57.371Z,91712.00
2018-05-14T10:25:57.395Z,90336.00
2018-05-14T10:26:57.400Z,91104.00
2018-05-14T10:27:57.393Z,92320.00
2018-05-14T10:28:57.419Z,94240.00
2018-05-14T10:29:57.414Z,91616.00
2018-05-14T10:30:57.427Z,90816.00
2018-05-14T10:31:57.466Z,89376.00
2018-05-14T10:32:57.459Z,88384.00
2018-05-14T10:33:57.449Z,88192.00
2018-05-14T10:34:57.457Z,89888.00
2018-05-14T10:35:57.468Z,92992.00
2018-05-14T10:36:57.481Z,92608.00
2018-05-14T10:37:57.494Z,89248.00
2018-05-14T10:38:57.498Z,89216.00
2018-05-14T10:39:57.521Z,89376.00
2018-05-14T10:40:57.524Z,89920.00
2018-05-14T10:41:57.534Z,87776.00
2018-05-14T10:42:57.544Z,88928.00
2018-05-14T10:43:57.555Z,89376.00
2018-05-14T10:44:57.565Z,88224.00
2018-05-14T10:45:57.575Z,87264.00
2018-05-14T10:46:57.695Z,89248.00
2018-05-14T10:47:57.601Z,89216.00
2018-05-14T10:48:57.623Z,90592.00
2018-05-14T10:49:57.651Z,90304.00
2018-05-14T10:50:57.630Z,89088.00
2018-05-14T10:51:57.661Z,90560.00
2018-05-14T10:52:57.748Z,92896.00
2018-05-14T10:53:57.688Z,91680.00
2018-05-14T10:54:57.700Z,94688.00
2018-05-14T10:55:57.702Z,90080.00
2018-05-14T10:56:57.695Z,88480.00
2018-05-14T10:57:57.721Z,89760.00
2018-05-14T10:58:57.751Z,89984.00
2018-05-14T10:59:57.731Z,93056.00
2018-05-14T11:00:57.739Z,93792.00
2018-05-14T11:01:57.747Z,92736.00
2018-05-14T11:02:57.813Z,89088.00
2018-05-14T11:03:57.798Z,88576.00
2018-05-14T11:04:57.784Z,86816.00
2018-05-14T11:05:57.794Z,86912.00
2018-05-14T11:06:57.806Z,87072.00
2018-05-14T11:07:57.816Z,82976.00
2018-05-14T11:08:57.823Z,81600.00
2018-05-14T11:09:57.835Z,78528.00
2018-05-14T11:10:57.847Z,78496.00
2018-05-14T11:11:57.864Z,83936.00
2018-05-14T11:12:57.873Z,86240.00
2018-05-14T11:13:57.906Z,89824.00
2018-05-14T11:14:57.890Z,89888.00
2018-05-14T11:15:57.900Z,86720.00
2018-05-14T11:16:57.912Z,87584.00
2018-05-14T11:17:57.919Z,89184.00
2018-05-14T11:18:57.925Z,89664.00
2018-05-14T11:19:57.963Z,88800.00
2018-05-14T11:20:57.957Z,87552.00
2018-05-14T11:21:57.961Z,88512.00
2018-05-14T11:22:57.975Z,90080.00
2018-05-14T11:23:57.993Z,90528.00
2018-05-14T11:24:58.008Z,90816.00
2018-05-14T11:25:58.044Z,91520.00
2018-05-14T11:26:58.019Z,92032.00
2018-05-14T11:27:58.156Z,94784.00
2018-05-14T11:28:58.033Z,94240.00
2018-05-14T11:29:58.048Z,94464.00
2018-05-14T11:30:58.051Z,100864.00
2018-05-14T11:31:58.062Z,102304.00
2018-05-14T11:32:58.074Z,104320.00
2018-05-14T11:33:58.088Z,105664.00
2018-05-14T11:34:58.097Z,106368.00
2018-05-14T11:35:58.101Z,105376.00
2018-05-14T11:36:58.116Z,103552.00
2018-05-14T11:37:58.134Z,103744.00
2018-05-14T11:38:58.136Z,105280.00
2018-05-14T11:39:58.145Z,106496.00
2018-05-14T11:40:58.220Z,105760.00
2018-05-14T11:41:58.165Z,106656.00
2018-05-14T11:42:58.177Z,105888.00
2018-05-14T11:43:58.186Z,106496.00
2018-05-14T11:44:58.200Z,104096.00
2018-05-14T11:45:58.207Z,103168.00
2018-05-14T11:46:58.243Z,102048.00
2018-05-14T11:47:58.223Z,101792.00
2018-05-14T11:48:58.233Z,102784.00
2018-05-14T11:49:58.242Z,103904.00
2018-05-14T11:50:58.251Z,104064.00
2018-05-14T11:51:58.263Z,102528.00
2018-05-14T11:52:58.287Z,103808.00
2018-05-14T11:53:58.284Z,103200.00
2018-05-14T11:54:58.310Z,102176.00
2018-05-14T11:55:58.315Z,102752.00
2018-05-14T11:56:58.327Z,103136.00
2018-05-14T11:57:58.316Z,103904.00
2018-05-14T11:58:58.332Z,103936.00
2018-05-14T11:59:58.347Z,106240.00
2018-05-14T12:00:58.352Z,107008.00
2018-05-14T12:01:58.364Z,106880.00
2018-05-14T12:02:58.526Z,100576.00
2018-05-14T12:03:58.379Z,97088.00
2018-05-14T12:04:58.415Z,90784.00
2018-05-14T12:05:58.389Z,93600.00
2018-05-14T12:06:58.400Z,95904.00
2018-05-14T12:07:58.406Z,94720.00
2018-05-14T12:08:58.420Z,96448.00
2018-05-14T12:09:58.471Z,94112.00
2018-05-14T12:10:58.438Z,96736.00
2018-05-14T12:11:58.448Z,98848.00
2018-05-14T12:12:58.461Z,97856.00
2018-05-14T12:13:58.466Z,93824.00
2018-05-14T12:14:58.473Z,94432.00
2018-05-14T12:15:58.483Z,95040.00
2018-05-14T12:16:58.497Z,95552.00
2018-05-14T12:17:58.550Z,95072.00
2018-05-14T12:18:58.513Z,96064.00
2018-05-14T12:19:58.518Z,94912.00
2018-05-14T12:20:58.527Z,96384.00
2018-05-14T12:21:58.539Z,97952.00
2018-05-14T12:22:58.546Z,98944.00
2018-05-14T12:23:58.554Z,99232.00
2018-05-14T12:24:58.565Z,101760.00
2018-05-14T12:25:58.572Z,100032.00
2018-05-14T12:26:58.589Z,101088.00
2018-05-14T12:27:58.592Z,97440.00
2018-05-14T12:28:58.599Z,96480.00
2018-05-14T12:29:58.608Z,95296.00
2018-05-14T12:30:58.622Z,94464.00
2018-05-14T12:31:58.713Z,92960.00
2018-05-14T12:32:58.637Z,93600.00
2018-05-14T12:33:58.642Z,95520.00
2018-05-14T12:34:58.650Z,96224.00
2018-05-14T12:35:58.655Z,97088.00
2018-05-14T12:36:58.671Z,94176.00
2018-05-14T12:37:58.678Z,91744.00
2018-05-14T12:38:58.682Z,91424.00
2018-05-14T12:39:58.688Z,94048.00
2018-05-14T12:40:58.715Z,96288.00
2018-05-14T12:41:58.752Z,95936.00